Time;durP1;ratioP1;P1;durP2;ratioP2;P2;SDS_P1;SDS_P2;PMS_P1;PMS_P2;Temp;Humidity;BMP_temperature;BMP_pressure;BME280_temperature;BME280_humidity;BME280_pressure;Samples;Min_cycle;Max_cycle;Signal;HPM_P1;HPM_P2
2023/07/13 00:00:38;;;;;;;6.80;2.60;;;15.70;99.90;;;;;;5013653;28;20228;-69
2023/07/13 00:03:06;;;;;;;8.98;2.55;;;15.70;99.90;;;;;;5038107;28;20228;-69
2023/07/13 00:05:33;;;;;;;7.25;2.90;;;15.60;99.90;;;;;;5027866;28;20678;-69
2023/07/13 00:08:00;;;;;;;5.40;2.92;;;;;;;;;;5041851;28;20210;-69
2023/07/13 00:10:27;;;;;;;6.22;3.00;;;15.80;99.90;;;;;;5042775;28;20207;-69
2023/07/13 00:12:55;;;;;;;4.07;3.08;;;15.80;99.90;;;;;;5042442;28;20646;-69
2023/07/13 00:15:24;;;;;;;6.05;3.55;;;15.90;99.90;;;;;;5013237;28;20848;-69
2023/07/13 00:17:54;;;;;;;7.15;2.70;;;15.60;99.90;;;;;;5041404;28;20666;-69
2023/07/13 00:20:21;;;;;;;7.45;3.28;;;14.80;99.90;;;;;;5026351;28;20248;-69
2023/07/13 00:22:49;;;;;;;5.40;3.20;;;15.70;99.90;;;;;;5031479;28;20208;-69
2023/07/13 00:25:16;;;;;;;5.93;3.17;;;15.60;99.90;;;;;;5035674;28;20881;-69
2023/07/13 00:27:44;;;;;;;4.45;2.90;;;15.60;99.90;;;;;;5042387;28;20223;-69
2023/07/13 00:30:11;;;;;;;18.40;4.10;;;15.60;99.90;;;;;;5035117;28;20244;-69
2023/07/13 00:32:39;;;;;;;13.85;3.45;;;15.60;99.90;;;;;;5025800;28;20774;-69
2023/07/13 00:35:08;;;;;;;6.43;2.80;;;15.60;99.90;;;;;;5023512;28;20220;-69
2023/07/13 00:37:35;;;;;;;9.57;3.25;;;15.50;99.90;;;;;;5016266;28;20236;-69
2023/07/13 00:40:03;;;;;;;4.35;2.97;;;15.60;99.90;;;;;;5042322;28;20240;-69
2023/07/13 00:42:30;;;;;;;5.03;3.05;;;17.00;99.90;;;;;;5038661;28;21065;-69
2023/07/13 00:45:05;;;;;;;10.02;2.92;;;15.50;99.90;;;;;;5045625;28;20224;-69
2023/07/13 00:47:32;;;;;;;11.32;3.03;;;15.40;99.90;;;;;;5015564;28;20728;-69
2023/07/13 00:50:00;;;;;;;3.05;2.75;;;15.40;99.90;;;;;;5042494;28;20232;-69
2023/07/13 00:52:29;;;;;;;7.32;3.20;;;15.40;99.90;;;;;;5023165;28;20228;-69
2023/07/13 00:54:56;;;;;;;5.28;2.70;;;15.40;99.90;;;;;;5034394;28;20216;-69
2023/07/13 00:57:23;;;;;;;8.13;3.03;;;15.40;99.90;;;;;;5047362;28;20220;-69
2023/07/13 00:59:55;;;;;;;9.93;3.15;;;15.30;99.90;;;;;;5041748;28;20277;-69
2023/07/13 01:02:22;;;;;;;4.03;2.97;;;15.20;99.90;;;;;;5014692;28;20295;-69
2023/07/13 01:04:49;;;;;;;3.83;3.20;;;15.30;99.90;;;;;;5034952;28;20219;-68
2023/07/13 01:07:16;;;;;;;6.32;3.33;;;15.80;99.90;;;;;;5017464;28;20953;-69
2023/07/13 01:09:45;;;;;;;12.65;3.53;;;15.30;99.90;;;;;;5028680;28;20274;-69
2023/07/13 01:12:13;;;;;;;6.32;3.03;;;15.30;99.90;;;;;;5030547;28;20204;-69
2023/07/13 01:14:40;;;;;;;3.90;2.72;;;15.20;99.90;;;;;;5041445;28;20292;-69
2023/07/13 01:17:10;;;;;;;6.97;3.00;;;14.20;99.90;;;;;;5020085;28;20694;-69
2023/07/13 01:19:39;;;;;;;3.60;2.80;;;15.20;99.90;;;;;;5029635;28;20304;-69
2023/07/13 01:22:11;;;;;;;9.35;3.55;;;15.20;99.90;;;;;;5015940;28;20239;-69
2023/07/13 01:24:39;;;;;;;5.47;2.97;;;15.20;99.90;;;;;;5022133;28;21048;-68
2023/07/13 01:27:07;;;;;;;9.25;2.75;;;14.90;99.90;;;;;;5040215;28;20235;-69
2023/07/13 01:29:41;;;;;;;7.53;2.95;;;15.20;99.90;;;;;;5042608;28;20359;-69
2023/07/13 01:32:09;;;;;;;6.60;2.72;;;15.40;99.90;;;;;;5034621;28;20719;-69
2023/07/13 01:34:36;;;;;;;4.25;3.03;;;15.30;99.90;;;;;;5019581;28;20409;-69
2023/07/13 01:37:04;;;;;;;7.15;3.15;;;15.30;99.90;;;;;;5036903;28;20206;-69
2023/07/13 01:39:32;;;;;;;5.97;3.22;;;15.30;99.90;;;;;;5041341;28;20223;-69
2023/07/13 01:42:00;;;;;;;7.88;3.70;;;15.30;99.90;;;;;;5044945;28;20235;-69
2023/07/13 01:44:26;;;;;;;7.38;3.75;;;15.40;99.90;;;;;;5049073;28;20204;-69
2023/07/13 01:46:53;;;;;;;10.48;4.15;;;15.40;99.90;;;;;;5036921;28;20283;-69
2023/07/13 01:49:20;;;;;;;4.20;3.80;;;15.40;99.90;;;;;;5020217;28;20425;-69
2023/07/13 01:51:47;;;;;;;4.78;3.72;;;15.40;99.90;;;;;;5035337;28;20200;-69
2023/07/13 01:54:14;;;;;;;8.55;4.82;;;15.30;99.90;;;;;;5023464;28;20229;-69
2023/07/13 01:56:42;;;;;;;7.43;3.30;;;15.40;99.90;;;;;;5043077;28;20225;-69
2023/07/13 01:59:09;;;;;;;10.85;4.55;;;15.40;99.90;;;;;;5035990;28;20224;-69
2023/07/13 02:01:37;;;;;;;4.88;3.80;;;15.40;99.90;;;;;;5033463;28;20236;-69
2023/07/13 02:04:04;;;;;;;8.55;3.72;;;15.30;99.90;;;;;;5036163;28;20287;-69
2023/07/13 02:06:30;;;;;;;5.15;4.20;;;15.30;99.90;;;;;;5011905;28;20277;-69
2023/07/13 02:08:58;;;;;;;8.13;4.18;;;;;;;;;;5034308;28;20741;-68
2023/07/13 02:11:25;;;;;;;5.43;3.83;;;15.30;99.90;;;;;;5032997;28;20224;-69
2023/07/13 02:13:53;;;;;;;6.22;3.72;;;15.40;99.90;;;;;;5044784;28;20208;-68
2023/07/13 02:16:20;;;;;;;5.30;3.58;;;15.30;99.90;;;;;;5033768;28;20300;-69
2023/07/13 02:18:47;;;;;;;7.70;3.70;;;15.30;99.90;;;;;;5040985;28;20273;-69
2023/07/13 02:21:13;;;;;;;6.55;3.63;;;19.10;99.90;;;;;;5018730;28;20260;-69
2023/07/13 02:23:40;;;;;;;8.50;3.90;;;15.30;99.90;;;;;;5044208;28;20322;-68
2023/07/13 02:26:07;;;;;;;11.25;4.72;;;15.30;99.90;;;;;;5028105;28;20308;-69
2023/07/13 02:28:34;;;;;;;11.55;4.15;;;15.30;99.90;;;;;;5044770;28;20389;-69
2023/07/13 02:31:08;;;;;;;9.38;4.40;;;15.30;99.90;;;;;;5044284;28;20240;-69
2023/07/13 02:33:37;;;;;;;6.05;4.35;;;15.20;99.90;;;;;;5046608;28;20708;-69
2023/07/13 02:36:05;;;;;;;7.05;4.05;;;15.20;99.90;;;;;;5035205;28;20260;-69
2023/07/13 02:38:33;;;;;;;7.53;4.05;;;15.20;99.90;;;;;;5014279;28;20231;-68
2023/07/13 02:41:01;;;;;;;7.07;3.88;;;15.20;99.90;;;;;;5013007;28;20243;-69
2023/07/13 02:43:28;;;;;;;5.07;3.30;;;15.20;99.90;;;;;;5008333;28;20699;-71
2023/07/13 02:45:55;;;;;;;3.90;3.03;;;15.20;99.90;;;;;;5035523;28;20244;-68
2023/07/13 02:48:23;;;;;;;9.52;2.83;;;15.20;99.90;;;;;;5024750;28;20319;-69
2023/07/13 02:50:50;;;;;;;6.47;2.95;;;15.20;99.90;;;;;;5042256;28;20454;-69
2023/07/13 02:53:17;;;;;;;10.73;3.15;;;15.20;99.90;;;;;;5018367;28;20342;-68
2023/07/13 02:55:47;;;;;;;4.18;2.60;;;15.30;99.90;;;;;;5027194;28;20288;-68
2023/07/13 02:58:16;;;;;;;4.53;2.78;;;15.30;99.90;;;;;;5039785;28;20236;-68
2023/07/13 03:00:43;;;;;;;5.30;2.90;;;15.30;99.90;;;;;;5031519;28;20656;-69
2023/07/13 03:03:11;;;;;;;5.60;3.35;;;15.30;99.90;;;;;;5021076;28;20316;-69
2023/07/13 03:05:42;;;;;;;10.40;3.25;;;15.30;99.90;;;;;;5031337;28;20273;-69
2023/07/13 03:08:10;;;;;;;5.55;3.45;;;15.40;99.90;;;;;;5015013;28;20224;-69
2023/07/13 03:10:37;;;;;;;7.00;3.45;;;15.30;99.90;;;;;;5026826;28;21298;-69
2023/07/13 03:13:04;;;;;;;9.40;4.15;;;17.40;99.90;;;;;;5040196;28;20201;-69
2023/07/13 03:15:30;;;;;;;6.50;4.07;;;15.40;99.90;;;;;;5025997;28;20287;-68
2023/07/13 03:17:57;;;;;;;8.30;4.25;;;14.10;99.90;;;;;;5014235;28;20228;-68
2023/07/13 03:20:24;;;;;;;9.73;4.47;;;15.40;99.90;;;;;;5026089;28;20314;-69
2023/07/13 03:22:53;;;;;;;10.02;4.38;;;15.40;99.90;;;;;;5014709;28;20254;-69
2023/07/13 03:25:19;;;;;;;12.48;4.47;;;14.80;99.90;;;;;;5023220;28;20283;-70
2023/07/13 03:27:46;;;;;;;5.05;3.60;;;15.50;99.90;;;;;;5031585;28;20304;-69
2023/07/13 03:30:14;;;;;;;6.80;3.90;;;15.50;99.90;;;;;;5009278;28;20329;-69
2023/07/13 03:32:40;;;;;;;7.20;3.67;;;15.50;99.90;;;;;;5025284;28;20221;-69
2023/07/13 03:35:09;;;;;;;8.75;3.25;;;15.60;99.90;;;;;;5012392;28;20593;-69
2023/07/13 03:37:42;;;;;;;10.05;3.75;;;15.50;99.90;;;;;;5013079;28;20307;-69
2023/07/13 03:40:11;;;;;;;5.53;2.40;;;15.60;99.90;;;;;;5031165;28;20629;-70
2023/07/13 03:42:38;;;;;;;5.60;2.67;;;15.60;99.90;;;;;;5025869;28;20319;-69
2023/07/13 03:45:06;;;;;;;5.47;2.92;;;15.90;99.90;;;;;;5041111;28;20240;-69
2023/07/13 03:47:33;;;;;;;6.97;2.97;;;15.70;99.90;;;;;;5027264;28;20249;-68
2023/07/13 03:50:00;;;;;;;6.50;2.22;;;15.80;99.90;;;;;;5036904;28;20267;-68
2023/07/13 03:52:27;;;;;;;4.15;2.50;;;15.80;99.90;;;;;;5036156;28;20788;-69
2023/07/13 03:54:54;;;;;;;7.28;2.30;;;15.80;99.90;;;;;;5012346;28;21426;-69
2023/07/13 03:57:22;;;;;;;10.88;3.17;;;15.80;99.90;;;;;;5023736;28;20311;-68
2023/07/13 03:59:49;;;;;;;7.18;2.30;;;15.80;99.90;;;;;;5018907;28;20211;-69
2023/07/13 04:02:17;;;;;;;5.93;2.33;;;15.80;99.90;;;;;;5031555;28;20629;-69
2023/07/13 04:04:44;;;;;;;10.43;3.00;;;15.90;99.90;;;;;;5041231;28;20208;-69
2023/07/13 04:07:11;;;;;;;6.15;2.40;;;15.80;99.90;;;;;;5035803;28;20631;-69
2023/07/13 04:09:37;;;;;;;7.18;2.55;;;15.80;99.90;;;;;;5025532;28;20206;-69
2023/07/13 04:12:05;;;;;;;5.45;2.40;;;15.80;99.90;;;;;;5026741;28;21247;-69
2023/07/13 04:14:33;;;;;;;6.80;2.22;;;15.80;99.90;;;;;;5042396;28;20299;-69
2023/07/13 04:17:00;;;;;;;8.18;2.70;;;15.90;99.90;;;;;;5025291;28;20659;-69
2023/07/13 04:19:27;;;;;;;6.63;2.60;;;15.90;99.90;;;;;;5041992;28;20976;-69
2023/07/13 04:21:54;;;;;;;4.13;1.88;;;15.90;99.90;;;;;;5037046;28;20314;-69
2023/07/13 04:24:21;;;;;;;5.85;2.40;;;15.90;99.90;;;;;;5019057;28;21687;-69
2023/07/13 04:26:47;;;;;;;5.25;2.95;;;15.90;99.90;;;;;;5039130;28;20253;-69
2023/07/13 04:29:15;;;;;;;8.02;2.30;;;;;;;;;;5032596;28;20250;-69
2023/07/13 04:31:43;;;;;;;8.52;2.45;;;15.90;99.90;;;;;;5043356;28;20216;-69
2023/07/13 04:34:10;;;;;;;6.53;2.45;;;15.90;99.90;;;;;;5029909;28;20374;-69
2023/07/13 04:36:37;;;;;;;8.43;1.90;;;16.00;99.90;;;;;;5030431;28;20690;-68
2023/07/13 04:39:04;;;;;;;6.13;2.30;;;16.20;99.90;;;;;;5017900;28;20406;-68
2023/07/13 04:41:31;;;;;;;6.00;2.35;;;15.90;99.90;;;;;;5042134;28;20813;-69
2023/07/13 04:43:58;;;;;;;8.90;2.53;;;16.20;99.90;;;;;;5028525;28;20217;-69
2023/07/13 04:46:24;;;;;;;9.38;2.33;;;16.00;99.90;;;;;;5039920;28;20285;-68
2023/07/13 04:48:54;;;;;;;7.80;2.20;;;16.10;99.90;;;;;;5029630;28;20335;-69
2023/07/13 04:51:21;;;;;;;10.40;2.60;;;15.90;99.90;;;;;;5040150;28;20743;-69
2023/07/13 04:53:48;;;;;;;9.15;2.25;;;;;;;;;;5021155;28;20252;-69
2023/07/13 04:56:15;;;;;;;6.85;2.03;;;16.10;99.90;;;;;;5028119;28;20904;-69
2023/07/13 04:58:42;;;;;;;5.50;2.38;;;16.00;99.90;;;;;;5039985;28;20311;-69
2023/07/13 05:01:10;;;;;;;7.72;2.47;;;16.10;99.90;;;;;;5025168;28;20253;-68
2023/07/13 05:03:37;;;;;;;12.45;2.70;;;16.10;99.90;;;;;;5040440;28;20586;-68
2023/07/13 05:06:09;;;;;;;6.20;2.22;;;16.10;99.90;;;;;;5034474;28;20298;-69
2023/07/13 05:08:36;;;;;;;8.20;2.30;;;16.10;99.90;;;;;;5047354;28;20225;-69
2023/07/13 05:11:05;;;;;;;7.65;2.00;;;16.20;99.90;;;;;;5015876;28;20323;-69
2023/07/13 05:13:32;;;;;;;8.20;2.40;;;16.10;99.90;;;;;;5042515;28;20606;-69
2023/07/13 05:16:00;;;;;;;6.78;2.40;;;16.30;99.90;;;;;;5024448;28;20687;-69
2023/07/13 05:18:28;;;;;;;7.75;2.15;;;16.20;99.90;;;;;;5041843;28;20302;-68
2023/07/13 05:21:02;;;;;;;4.68;2.30;;;16.30;99.90;;;;;;5032391;28;20836;-69
2023/07/13 05:23:31;;;;;;;6.35;2.25;;;16.30;99.90;;;;;;5046682;28;20864;-68
2023/07/13 05:25:58;;;;;;;14.25;2.67;;;16.20;99.90;;;;;;5023360;28;20228;-69
2023/07/13 05:28:26;;;;;;;4.95;2.55;;;16.30;99.90;;;;;;5040490;28;20251;-69
2023/07/13 05:30:54;;;;;;;11.15;2.45;;;16.30;99.90;;;;;;5041286;28;20284;-69
2023/07/13 05:33:22;;;;;;;6.60;2.28;;;16.40;99.90;;;;;;5033209;28;20211;-68
2023/07/13 05:35:49;;;;;;;4.05;2.30;;;16.40;99.90;;;;;;5041164;28;20198;-69
2023/07/13 05:38:16;;;;;;;7.82;2.50;;;16.30;99.90;;;;;;5043598;28;20709;-69
2023/07/13 05:40:45;;;;;;;8.05;3.17;;;15.70;99.90;;;;;;5038634;28;20270;-69
2023/07/13 05:43:12;;;;;;;4.43;2.05;;;16.10;99.90;;;;;;5028200;28;20799;-68
2023/07/13 05:45:40;;;;;;;5.28;2.47;;;16.40;99.90;;;;;;5045797;28;21243;-68
2023/07/13 05:48:07;;;;;;;8.93;2.75;;;16.50;99.90;;;;;;5033446;28;20201;-69
2023/07/13 05:50:33;;;;;;;20.10;2.75;;;16.50;99.90;;;;;;5039595;28;20228;-69
2023/07/13 05:53:00;;;;;;;7.25;2.63;;;16.50;99.90;;;;;;5036475;28;20228;-69
2023/07/13 05:55:27;;;;;;;9.02;2.60;;;16.50;99.90;;;;;;5033480;28;20634;-69
2023/07/13 05:57:57;;;;;;;7.40;2.35;;;16.40;99.90;;;;;;5021654;28;20310;-69
2023/07/13 06:00:25;;;;;;;9.07;3.28;;;16.50;99.90;;;;;;5044239;28;20235;-69
2023/07/13 06:02:52;;;;;;;5.50;2.03;;;14.10;99.90;;;;;;5034670;28;20235;-69
2023/07/13 06:05:18;;;;;;;11.82;2.53;;;16.50;99.90;;;;;;5037800;28;20784;-69
2023/07/13 06:07:45;;;;;;;8.88;2.75;;;16.60;99.90;;;;;;5037112;28;20678;-69
2023/07/13 06:10:12;;;;;;;7.47;2.60;;;16.60;99.90;;;;;;5041604;28;20216;-69
2023/07/13 06:12:39;;;;;;;6.93;2.55;;;;;;;;;;5014584;28;21010;-69
2023/07/13 06:15:09;;;;;;;11.13;2.92;;;16.60;99.90;;;;;;5039818;28;20223;-69
2023/07/13 06:17:36;;;;;;;5.88;2.60;;;16.60;99.90;;;;;;5037018;28;20369;-69
2023/07/13 06:20:03;;;;;;;7.55;2.72;;;16.80;99.90;;;;;;5032261;28;20296;-68
2023/07/13 06:22:30;;;;;;;9.20;2.38;;;16.80;99.90;;;;;;5032294;28;20367;-69
2023/07/13 06:24:57;;;;;;;16.92;3.00;;;16.80;99.90;;;;;;5042959;28;20297;-68
2023/07/13 06:27:23;;;;;;;6.30;2.35;;;16.80;99.90;;;;;;5014466;28;20310;-69
2023/07/13 06:29:50;;;;;;;7.32;2.95;;;16.80;99.90;;;;;;5052707;28;20225;-69
2023/07/13 06:32:18;;;;;;;7.22;3.03;;;16.70;99.90;;;;;;5031856;28;20709;-69
2023/07/13 06:34:45;;;;;;;12.13;3.28;;;16.80;99.90;;;;;;5034824;28;20295;-68
2023/07/13 06:37:13;;;;;;;8.65;2.90;;;16.80;99.90;;;;;;5032279;28;20224;-69
2023/07/13 06:39:39;;;;;;;13.75;3.20;;;16.90;99.90;;;;;;5034544;28;20258;-69
2023/07/13 06:42:07;;;;;;;10.18;3.03;;;16.80;99.90;;;;;;5011625;28;20518;-69
2023/07/13 06:44:34;;;;;;;8.18;2.83;;;16.80;99.90;;;;;;5037090;28;20317;-69
2023/07/13 06:47:01;;;;;;;9.68;2.83;;;16.80;99.90;;;;;;5035639;28;20752;-69
2023/07/13 06:49:29;;;;;;;6.70;2.30;;;16.80;99.90;;;;;;5035860;28;20206;-69
2023/07/13 06:51:56;;;;;;;7.57;2.35;;;16.90;99.90;;;;;;5036049;28;20316;-69
2023/07/13 06:54:23;;;;;;;9.00;2.88;;;16.90;99.90;;;;;;5028525;28;20856;-69
2023/07/13 06:56:50;;;;;;;5.22;2.70;;;17.00;99.90;;;;;;5030044;28;20225;-69
2023/07/13 06:59:17;;;;;;;8.80;2.60;;;17.00;99.90;;;;;;5024526;28;20240;-68
2023/07/13 07:01:44;;;;;;;7.38;2.92;;;17.20;99.90;;;;;;5036442;28;20669;-69
2023/07/13 07:04:10;;;;;;;7.50;3.78;;;17.40;99.90;;;;;;5030831;28;20260;-69
2023/07/13 07:06:39;;;;;;;9.13;2.70;;;17.10;99.90;;;;;;5048160;28;20232;-69
2023/07/13 07:09:05;;;;;;;17.15;3.38;;;17.20;99.90;;;;;;5023044;28;20229;-69
2023/07/13 07:11:32;;;;;;;9.95;3.20;;;17.10;99.90;;;;;;5040848;28;20674;-68
2023/07/13 07:13:59;;;;;;;8.00;3.30;;;17.30;99.90;;;;;;5018922;28;20283;-69
2023/07/13 07:16:26;;;;;;;7.47;2.85;;;17.30;99.90;;;;;;5041246;28;20259;-69
2023/07/13 07:18:53;;;;;;;6.90;2.80;;;17.30;99.90;;;;;;5037567;28;20706;-69
2023/07/13 07:21:22;;;;;;;16.67;3.60;;;17.30;99.90;;;;;;5031128;28;20360;-69
2023/07/13 07:23:50;;;;;;;9.00;4.40;;;17.40;99.90;;;;;;5037568;28;20248;-71
2023/07/13 07:26:17;;;;;;;10.30;3.20;;;17.70;99.90;;;;;;5032756;28;20248;-69
2023/07/13 07:28:44;;;;;;;7.20;2.83;;;17.50;99.90;;;;;;5021536;28;20326;-69
2023/07/13 07:31:11;;;;;;;9.70;4.53;;;17.70;99.90;;;;;;5037028;28;20606;-69
2023/07/13 07:33:38;;;;;;;10.23;3.92;;;17.60;99.90;;;;;;5040824;28;20302;-69
2023/07/13 07:36:05;;;;;;;7.97;3.33;;;17.60;99.90;;;;;;5032222;28;20589;-68
2023/07/13 07:38:32;;;;;;;14.77;4.03;;;17.60;99.90;;;;;;5031905;28;20461;-69
2023/07/13 07:41:03;;;;;;;10.02;2.97;;;17.90;99.90;;;;;;5036474;28;20314;-69
2023/07/13 07:43:31;;;;;;;9.02;3.45;;;17.90;99.90;;;;;;5047279;28;20252;-69
2023/07/13 07:45:58;;;;;;;7.65;2.85;;;17.90;99.90;;;;;;5017333;28;20304;-69
2023/07/13 07:48:24;;;;;;;8.32;3.28;;;18.00;99.90;;;;;;5044649;28;20208;-69
2023/07/13 07:50:51;;;;;;;6.10;3.50;;;18.00;99.90;;;;;;5033086;28;20651;-68
2023/07/13 07:53:18;;;;;;;8.80;3.60;;;18.10;99.90;;;;;;5045542;28;20244;-69
2023/07/13 07:55:45;;;;;;;9.82;3.58;;;18.20;99.90;;;;;;5021728;28;20197;-69
2023/07/13 07:58:14;;;;;;;9.48;3.10;;;18.10;99.90;;;;;;5043704;28;20197;-68
2023/07/13 08:00:40;;;;;;;10.07;3.53;;;18.10;99.90;;;;;;5027025;28;20294;-69
2023/07/13 08:03:07;;;;;;;7.43;3.40;;;18.10;99.90;;;;;;5042252;28;20302;-68
2023/07/13 08:05:36;;;;;;;6.82;2.75;;;18.10;99.90;;;;;;5031671;28;20281;-69
2023/07/13 08:08:03;;;;;;;8.07;2.85;;;18.10;99.90;;;;;;5039998;28;20252;-69
2023/07/13 08:10:30;;;;;;;5.63;3.30;;;18.20;99.90;;;;;;5030494;28;20379;-69
2023/07/13 08:12:57;;;;;;;11.35;3.22;;;18.20;99.90;;;;;;5038015;28;20282;-69
2023/07/13 08:15:25;;;;;;;7.75;3.10;;;18.20;99.90;;;;;;5028677;28;20225;-69
2023/07/13 08:17:52;;;;;;;4.82;3.10;;;18.20;99.90;;;;;;5016245;28;20281;-69
2023/07/13 08:20:19;;;;;;;7.50;2.90;;;18.40;99.90;;;;;;5036547;28;20772;-69
2023/07/13 08:22:46;;;;;;;7.03;2.90;;;18.30;99.90;;;;;;5030205;28;20320;-68
2023/07/13 08:25:13;;;;;;;7.60;3.65;;;18.40;99.90;;;;;;5036787;28;20983;-68
2023/07/13 08:27:39;;;;;;;7.32;3.50;;;18.40;99.90;;;;;;5031873;28;20236;-69
2023/07/13 08:30:08;;;;;;;12.98;3.60;;;18.60;99.90;;;;;;5041503;28;21248;-68
2023/07/13 08:32:38;;;;;;;9.52;2.75;;;18.60;99.90;;;;;;5018679;28;20346;-69
2023/07/13 08:35:06;;;;;;;7.80;2.88;;;18.50;99.90;;;;;;5041704;28;20674;-68
2023/07/13 08:37:33;;;;;;;3.78;2.25;;;18.60;99.90;;;;;;5030244;28;20678;-68
2023/07/13 08:39:59;;;;;;;8.23;2.72;;;18.70;99.90;;;;;;5046496;28;20285;-68
2023/07/13 08:42:31;;;;;;;14.80;3.00;;;;;;;;;;5026422;28;20812;-69
2023/07/13 08:45:16;;;;;;;9.38;2.95;;;18.70;99.90;;;;;;5030572;28;20710;-70
2023/07/13 08:47:50;;;;;;;8.13;3.47;;;18.80;99.90;;;;;;5046396;28;20217;-69
2023/07/13 08:50:21;;;;;;;5.07;2.55;;;18.90;99.90;;;;;;5033487;28;20231;-69
2023/07/13 08:52:48;;;;;;;8.30;2.70;;;18.90;99.90;;;;;;5033867;28;20374;-69
2023/07/13 08:55:19;;;;;;;10.32;2.40;;;19.00;99.90;;;;;;5045282;28;20281;-68
2023/07/13 08:57:52;;;;;;;6.80;2.17;;;19.10;99.90;;;;;;5038731;28;20316;-69
2023/07/13 09:00:19;;;;;;;4.70;2.03;;;19.20;99.90;;;;;;5045024;28;20235;-68
2023/07/13 09:02:56;;;;;;;7.43;2.63;;;19.20;99.90;;;;;;5039742;28;20229;-69
2023/07/13 09:05:29;;;;;;;7.68;2.38;;;19.00;99.90;;;;;;5017986;28;20323;-69
2023/07/13 09:08:11;;;;;;;7.60;2.65;;;19.30;99.90;;;;;;5038112;28;20311;-69
2023/07/13 09:10:44;;;;;;;5.13;2.20;;;19.30;99.90;;;;;;5039093;28;20282;-68
2023/07/13 09:13:25;;;;;;;5.38;2.33;;;19.30;99.90;;;;;;5034757;28;20337;-68
2023/07/13 09:15:52;;;;;;;5.82;2.17;;;18.60;99.90;;;;;;5043311;28;20279;-68
2023/07/13 09:18:29;;;;;;;6.95;2.22;;;19.50;99.90;;;;;;5037910;28;20525;-68
2023/07/13 09:20:59;;;;;;;6.43;1.95;;;19.60;99.90;;;;;;5006878;28;20236;-68
2023/07/13 09:23:30;;;;;;;5.30;2.10;;;19.60;99.90;;;;;;5021225;28;20663;-69
2023/07/13 09:26:03;;;;;;;10.35;5.00;;;19.80;99.90;;;;;;5034273;28;20378;-68
2023/07/13 09:28:35;;;;;;;5.97;1.98;;;19.90;99.90;;;;;;5026741;28;20370;-69
2023/07/13 09:31:06;;;;;;;3.75;1.90;;;19.90;99.90;;;;;;5032570;28;20239;-68
2023/07/13 09:33:34;;;;;;;5.85;2.13;;;20.00;99.90;;;;;;5041521;28;20291;-68
2023/07/13 09:36:02;;;;;;;3.55;2.00;;;19.80;99.90;;;;;;5022532;28;20320;-68
2023/07/13 09:38:31;;;;;;;4.05;2.00;;;19.80;99.90;;;;;;5027987;28;20228;-69
2023/07/13 09:41:20;;;;;;;3.10;1.70;;;19.80;99.90;;;;;;5043461;28;20197;-68
2023/07/13 09:44:11;;;;;;;4.28;2.38;;;19.70;99.90;;;;;;5034649;28;20295;-68
2023/07/13 09:46:39;;;;;;;3.15;1.58;;;19.80;99.90;;;;;;5039652;28;20197;-68
2023/07/13 09:49:11;;;;;;;5.55;1.92;;;19.80;99.90;;;;;;5042175;28;20278;-68
2023/07/13 09:51:39;;;;;;;6.82;2.10;;;20.00;99.90;;;;;;5019725;28;20672;-68
2023/07/13 09:54:05;;;;;;;8.10;1.95;;;20.00;99.90;;;;;;5023366;28;20235;-68
2023/07/13 09:56:33;;;;;;;3.88;1.77;;;19.90;99.90;;;;;;5044935;28;20251;-68
2023/07/13 09:59:00;;;;;;;15.50;2.40;;;19.90;99.90;;;;;;5022772;28;21327;-68
2023/07/13 10:01:34;;;;;;;6.75;2.20;;;20.10;99.90;;;;;;5032679;28;20397;-68
2023/07/13 10:04:01;;;;;;;4.32;2.03;;;20.20;99.90;;;;;;5043369;28;20327;-68
2023/07/13 10:06:29;;;;;;;5.72;2.13;;;20.20;99.90;;;;;;5023254;28;20929;-68
2023/07/13 10:08:58;;;;;;;4.55;1.63;;;20.20;99.90;;;;;;5018707;28;20224;-68
2023/07/13 10:11:29;;;;;;;2.28;1.55;;;20.20;99.90;;;;;;5039899;28;20749;-68
2023/07/13 10:13:59;;;;;;;5.03;1.80;;;20.40;99.90;;;;;;5039162;28;20352;-68
2023/07/13 10:16:32;;;;;;;3.38;1.88;;;20.60;99.90;;;;;;5018280;28;20232;-68
2023/07/13 10:19:01;;;;;;;3.47;1.98;;;20.30;99.90;;;;;;5035425;28;20370;-68
2023/07/13 10:21:34;;;;;;;4.22;2.17;;;20.30;99.90;;;;;;5017100;28;20220;-68
2023/07/13 10:24:06;;;;;;;4.13;1.98;;;20.10;99.90;;;;;;5043641;28;20260;-68
2023/07/13 10:26:35;;;;;;;3.75;1.92;;;20.00;99.90;;;;;;5018219;28;20952;-68
2023/07/13 10:29:07;;;;;;;6.32;1.95;;;20.00;99.90;;;;;;5015504;28;20992;-68
2023/07/13 10:31:45;;;;;;;4.57;2.00;;;20.20;99.90;;;;;;5027385;28;20294;-67
2023/07/13 10:34:14;;;;;;;3.05;1.75;;;20.40;99.90;;;;;;5041021;28;20220;-68
2023/07/13 10:36:45;;;;;;;4.07;2.67;;;20.40;99.90;;;;;;5021999;28;20252;-68
2023/07/13 10:39:17;;;;;;;5.10;1.80;;;20.50;99.90;;;;;;5044091;28;20270;-68
2023/07/13 10:41:47;;;;;;;6.65;1.90;;;20.60;99.90;;;;;;5029655;28;20220;-68
2023/07/13 10:44:25;;;;;;;4.22;2.10;;;20.70;99.90;;;;;;5044947;28;20255;-68
2023/07/13 10:46:54;;;;;;;5.90;1.88;;;20.80;99.90;;;;;;5027699;28;20261;-68
2023/07/13 10:49:22;;;;;;;4.03;1.55;;;20.70;99.90;;;;;;5038652;28;20587;-68
2023/07/13 10:51:51;;;;;;;4.70;1.65;;;20.70;99.90;;;;;;5043387;28;20805;-68
2023/07/13 10:54:24;;;;;;;3.05;1.65;;;20.80;99.90;;;;;;5029071;28;20613;-68
2023/07/13 10:56:54;;;;;;;6.22;1.60;;;20.80;99.90;;;;;;5033604;28;20666;-67
2023/07/13 10:59:27;;;;;;;1.83;1.38;;;20.70;99.90;;;;;;5039369;28;20196;-67
2023/07/13 11:01:58;;;;;;;2.55;1.45;;;20.60;99.90;;;;;;5031251;28;20319;-67
2023/07/13 11:04:27;;;;;;;2.85;1.58;;;20.60;99.90;;;;;;5042522;28;20346;-67
2023/07/13 11:06:59;;;;;;;2.72;1.25;;;20.50;99.90;;;;;;5028726;28;20201;-67
2023/07/13 11:09:36;;;;;;;4.65;1.20;;;20.40;99.90;;;;;;5037315;28;20205;-67
2023/07/13 11:12:09;;;;;;;2.35;1.50;;;20.30;99.90;;;;;;5031544;28;20686;-67
2023/07/13 11:14:38;;;;;;;3.13;1.65;;;20.20;99.90;;;;;;5044155;28;20197;-67
2023/07/13 11:17:26;;;;;;;4.47;1.50;;;20.20;99.90;;;;;;5035926;28;20201;-67
2023/07/13 11:19:53;;;;;;;4.85;1.50;;;20.20;99.90;;;;;;5040827;28;20701;-67
2023/07/13 11:22:42;;;;;;;4.05;1.55;;;20.00;99.90;;;;;;5046085;28;21197;-67
2023/07/13 11:25:30;;;;;;;2.53;1.48;;;20.00;99.90;;;;;;5020638;28;20251;-67
2023/07/13 11:28:22;;;;;;;1.42;1.17;;;20.00;99.90;;;;;;5031626;28;20236;-67
2023/07/13 11:30:51;;;;;;;4.30;1.35;;;19.70;99.90;;;;;;5047103;28;20200;-67
2023/07/13 11:33:20;;;;;;;2.03;1.23;;;19.40;99.90;;;;;;5031079;28;21047;-67
2023/07/13 11:35:54;;;;;;;2.30;1.40;;;19.00;99.90;;;;;;5047276;28;20252;-67
2023/07/13 11:38:28;;;;;;;2.42;0.95;;;18.60;99.90;;;;;;5015963;28;20940;-67
2023/07/13 11:40:56;;;;;;;2.83;1.15;;;18.30;99.90;;;;;;5035852;28;20248;-67
2023/07/13 11:43:25;;;;;;;1.42;1.20;;;18.30;99.90;;;;;;5032455;28;20229;-67
2023/07/13 11:45:52;;;;;;;1.10;1.00;;;18.10;99.90;;;;;;5033425;28;20670;-67
2023/07/13 11:48:22;;;;;;;1.42;1.20;;;18.10;99.90;;;;;;5029756;28;23145;-67
2023/07/13 11:50:59;;;;;;;1.10;1.00;;;17.90;99.90;;;;;;5046286;28;20575;-67
2023/07/13 11:53:30;;;;;;;1.88;1.73;;;17.90;99.90;;;;;;5042976;28;20563;-67
2023/07/13 11:55:58;;;;;;;3.28;1.40;;;17.90;99.90;;;;;;5020473;28;20257;-67
2023/07/13 11:58:28;;;;;;;0.90;0.90;;;17.90;99.90;;;;;;5031936;28;20205;-68
2023/07/13 12:00:58;;;;;;;1.25;1.10;;;17.80;99.90;;;;;;5035033;28;20266;-67
2023/07/13 12:03:26;;;;;;;1.23;1.08;;;17.90;99.90;;;;;;5046267;28;20760;-67
2023/07/13 12:05:59;;;;;;;1.70;1.00;;;17.80;99.90;;;;;;5008402;28;21909;-67
2023/07/13 12:08:25;;;;;;;2.58;1.60;;;17.80;99.90;;;;;;5029553;28;20225;-67
2023/07/13 12:11:01;;;;;;;1.20;1.10;;;17.70;99.90;;;;;;5024062;28;20205;-67
2023/07/13 12:13:29;;;;;;;1.58;1.45;;;17.70;99.90;;;;;;5030401;28;20216;-67
2023/07/13 12:15:58;;;;;;;3.13;1.58;;;17.90;99.90;;;;;;5024890;28;20218;-67
2023/07/13 12:18:30;;;;;;;1.75;1.50;;;17.90;99.90;;;;;;5031882;28;20220;-67
2023/07/13 12:21:00;;;;;;;4.00;1.80;;;18.00;99.90;;;;;;5033226;28;20311;-67
2023/07/13 12:23:30;;;;;;;1.73;1.55;;;18.10;99.90;;;;;;5035395;28;20240;-67
2023/07/13 12:26:02;;;;;;;1.92;1.40;;;18.30;99.90;;;;;;5012986;28;20902;-67
2023/07/13 12:28:37;;;;;;;3.15;1.80;;;18.40;99.90;;;;;;5033901;28;20216;-67
2023/07/13 12:31:06;;;;;;;2.88;1.83;;;18.60;99.90;;;;;;5023551;28;20235;-67
2023/07/13 12:33:34;;;;;;;2.33;1.80;;;18.70;99.90;;;;;;5024921;28;20217;-67
2023/07/13 12:36:02;;;;;;;3.45;1.75;;;18.70;99.90;;;;;;5038071;28;20302;-67
2023/07/13 12:38:31;;;;;;;2.08;1.90;;;18.80;99.90;;;;;;5031775;28;20523;-67
2023/07/13 12:40:59;;;;;;;1.92;1.75;;;19.00;99.90;;;;;;5014417;28;21674;-67
2023/07/13 12:43:28;;;;;;;3.35;2.00;;;19.10;99.90;;;;;;5041972;28;20287;-67
2023/07/13 12:46:00;;;;;;;3.65;2.20;;;19.90;99.90;;;;;;5031706;28;20224;-67
2023/07/13 12:48:28;;;;;;;1.92;1.42;;;19.30;99.90;;;;;;5040971;28;20228;-67
2023/07/13 12:50:56;;;;;;;1.88;1.00;;;19.30;99.90;;;;;;5038233;28;20243;-67
2023/07/13 12:53:30;;;;;;;1.20;0.82;;;19.20;99.90;;;;;;5041841;28;20283;-67
2023/07/13 12:56:03;;;;;;;1.42;0.98;;;18.90;99.90;;;;;;5017588;28;21067;-67